createdAt,value
2018-06-25T05:36:01.737Z,0.00
2018-06-25T10:38:10.754Z,1248.00
2018-06-25T10:39:10.425Z,1296.00
2018-06-25T10:52:57.447Z,1564.00
2018-06-25T10:53:57.395Z,1592.00
2018-06-25T10:54:57.400Z,1636.00
2018-06-25T10:55:57.413Z,1688.00
2018-06-25T10:56:57.413Z,1740.00
2018-06-25T10:57:57.594Z,1796.00
2018-06-25T10:58:57.456Z,1864.00
2018-06-25T10:59:57.639Z,1920.00
2018-06-25T11:45:24.687Z,4296.00
2018-06-25T11:46:24.597Z,4560.00
2018-06-25T11:47:24.608Z,5252.00
2018-06-25T11:48:24.649Z,4956.00
2018-06-25T11:49:24.641Z,7312.00
2018-06-25T11:50:24.785Z,5108.00
2018-06-25T11:51:24.669Z,6192.00
2018-06-25T11:52:24.680Z,7792.00
2018-06-25T11:55:33.290Z,18080.00
2018-06-25T11:56:33.184Z,17984.00
2018-06-25T11:57:33.219Z,17536.00
2018-06-25T11:58:33.238Z,19200.00
2018-06-25T11:59:33.249Z,19264.00
2018-06-25T12:00:33.345Z,19456.00
2018-06-25T12:01:33.268Z,19072.00
2018-06-25T12:02:33.419Z,19424.00
2018-06-25T12:03:33.310Z,19584.00
2018-06-25T12:04:33.344Z,13044.00
2018-06-25T12:05:33.525Z,6428.00
2018-06-25T12:06:33.337Z,11948.00
2018-06-25T12:10:24.504Z,20320.00
2018-06-25T12:11:24.646Z,20704.00
2018-06-25T12:13:50.488Z,21024.00
2018-06-25T12:14:50.530Z,20960.00
2018-06-25T12:15:50.520Z,20512.00
2018-06-25T12:18:59.227Z,21504.00
2018-06-25T12:19:59.086Z,21696.00
2018-06-25T12:21:03.489Z,21664.00
2018-06-25T12:21:59.299Z,22208.00
2018-06-25T12:22:59.551Z,22336.00
2018-06-25T12:24:00.649Z,22624.00
2018-06-25T12:25:42.710Z,22464.00
2018-06-25T12:26:42.925Z,23232.00
2018-06-25T12:27:42.620Z,23200.00
2018-06-25T12:28:42.989Z,23456.00
2018-06-25T12:29:42.706Z,23584.00
2018-06-25T12:30:43.020Z,23840.00
2018-06-25T12:31:42.618Z,24544.00
2018-06-25T12:32:42.670Z,25088.00
2018-06-25T12:33:42.885Z,25440.00
2018-06-25T12:34:42.828Z,26176.00
2018-06-25T12:35:42.696Z,25952.00
2018-06-25T12:36:42.720Z,25984.00
2018-06-25T12:37:42.741Z,25888.00
2018-06-25T12:38:42.758Z,26144.00
2018-06-25T12:39:42.881Z,26752.00
2018-06-25T12:40:42.822Z,27584.00
2018-06-25T12:41:42.819Z,22976.00
2018-06-25T12:42:42.858Z,23584.00
2018-06-25T12:43:42.883Z,23584.00
2018-06-25T12:45:42.927Z,27168.00
2018-06-25T12:46:42.944Z,28544.00
2018-06-25T12:47:42.937Z,29152.00
2018-06-25T12:48:42.963Z,29504.00
2018-06-25T12:49:43.087Z,28544.00
2018-06-25T12:50:43.028Z,29536.00
2018-06-25T12:51:43.024Z,29344.00
2018-06-25T12:52:43.073Z,30176.00
2018-06-25T12:53:43.066Z,29728.00
2018-06-25T12:54:43.210Z,29184.00
2018-06-25T12:55:43.139Z,28512.00
2018-06-25T12:56:43.132Z,27968.00
2018-06-25T12:57:43.164Z,30048.00
2018-06-25T12:58:43.402Z,31872.00
2018-06-25T12:59:43.299Z,33024.00
2018-06-25T13:00:43.238Z,34176.00
2018-06-25T13:01:43.260Z,37600.00
2018-06-25T13:02:43.258Z,38848.00
2018-06-25T13:03:43.294Z,39584.00
2018-06-25T13:04:43.414Z,38656.00
2018-06-25T13:05:43.345Z,35200.00
2018-06-25T13:06:43.355Z,32032.00
2018-06-25T13:07:43.368Z,30592.00
2018-06-25T13:08:43.410Z,30016.00
2018-06-25T13:09:43.541Z,30656.00
2018-06-25T13:10:43.491Z,31840.00
2018-06-25T13:11:43.478Z,34272.00
2018-06-25T13:12:43.470Z,33088.00
2018-06-25T13:13:43.502Z,31232.00
2018-06-25T13:14:43.627Z,29888.00
2018-06-25T13:15:43.572Z,29664.00
2018-06-25T13:16:43.564Z,29952.00
2018-06-25T13:17:43.602Z,29856.00
2018-06-25T13:18:43.616Z,30144.00
2018-06-25T13:19:43.734Z,30464.00
2018-06-25T13:20:43.687Z,30592.00
2018-06-25T13:21:43.693Z,30816.00
2018-06-25T13:22:43.700Z,30976.00
2018-06-25T13:23:43.726Z,30720.00
2018-06-25T13:24:43.845Z,30880.00
2018-06-25T13:25:43.980Z,31168.00
2018-06-25T13:26:43.793Z,31264.00
2018-06-25T13:27:43.820Z,31584.00
2018-06-25T13:28:43.848Z,32320.00
2018-06-25T13:29:44.018Z,29952.00
2018-06-25T13:30:43.916Z,31392.00
2018-06-25T13:31:43.935Z,31744.00
2018-06-25T13:32:43.930Z,33024.00
2018-06-25T13:33:43.956Z,34464.00
2018-06-25T13:34:44.078Z,35488.00
2018-06-25T13:35:44.003Z,36288.00
2018-06-25T13:36:44.041Z,37856.00
2018-06-25T13:37:44.256Z,38560.00
2018-06-25T13:38:44.071Z,38464.00
2018-06-25T13:39:44.549Z,36032.00
2018-06-25T13:40:44.145Z,35104.00
2018-06-25T13:41:44.171Z,34720.00
2018-06-25T13:42:44.197Z,34752.00
2018-06-25T13:43:44.188Z,35456.00
2018-06-25T13:44:44.223Z,36384.00
2018-06-25T13:45:44.379Z,36704.00
2018-06-25T13:46:44.293Z,37280.00
2018-06-25T13:47:44.296Z,38400.00
2018-06-25T13:48:44.324Z,39072.00
2018-06-25T13:49:44.354Z,40640.00
2018-06-25T13:50:44.513Z,43008.00
2018-06-25T13:51:44.389Z,45568.00
2018-06-25T13:52:44.420Z,49664.00
2018-06-25T13:53:44.465Z,50240.00
2018-06-25T13:54:44.510Z,46912.00
2018-06-25T13:55:45.023Z,41568.00
2018-06-25T13:56:44.512Z,39168.00
2018-06-25T13:57:44.563Z,39712.00
2018-06-25T13:58:44.588Z,41472.00
2018-06-25T13:59:44.609Z,44096.00
2018-06-25T14:00:44.844Z,44352.00
2018-06-25T14:01:44.641Z,44448.00
2018-06-25T14:02:44.674Z,47680.00
2018-06-25T14:03:44.745Z,50624.00
2018-06-25T14:04:44.709Z,49440.00
2018-06-25T14:05:44.829Z,48128.00
2018-06-25T14:06:44.763Z,45760.00
2018-06-25T14:07:44.787Z,43648.00
2018-06-25T14:08:44.834Z,41760.00
2018-06-25T14:09:44.889Z,40128.00
2018-06-25T14:10:44.990Z,38176.00
2018-06-25T14:11:44.897Z,37888.00
2018-06-25T14:12:44.947Z,37856.00
2018-06-25T14:13:45.138Z,37472.00
2018-06-25T14:14:44.964Z,37536.00
2018-06-25T14:15:45.164Z,37600.00
2018-06-25T14:16:45.125Z,37664.00
2018-06-25T14:17:45.042Z,37984.00
2018-06-25T14:18:45.073Z,38080.00
2018-06-25T14:19:45.153Z,38112.00
2018-06-25T14:20:45.242Z,38912.00
2018-06-25T14:21:45.150Z,40576.00
2018-06-25T14:22:45.221Z,42592.00
2018-06-25T14:23:45.195Z,45568.00
2018-06-25T14:24:45.248Z,48608.00
2018-06-25T14:25:45.374Z,47168.00
2018-06-25T14:26:45.304Z,43712.00
2018-06-25T14:27:45.307Z,43904.00
2018-06-25T14:28:45.327Z,45952.00
2018-06-25T14:29:45.378Z,48384.00
2018-06-25T14:30:45.500Z,48096.00
2018-06-25T14:31:45.402Z,48192.00
2018-06-25T14:32:45.454Z,50592.00
2018-06-25T14:33:45.513Z,50048.00
2018-06-25T14:34:45.486Z,47936.00
2018-06-25T14:35:45.629Z,49216.00
2018-06-25T14:36:45.560Z,51584.00
2018-06-25T14:37:45.580Z,54144.00
2018-06-25T14:38:45.583Z,54336.00
2018-06-25T14:39:45.637Z,54976.00
2018-06-25T14:40:45.797Z,54016.00
2018-06-25T14:41:45.661Z,52320.00
2018-06-25T14:42:45.713Z,50048.00
2018-06-25T14:43:45.714Z,48096.00
2018-06-25T14:44:45.744Z,45536.00
2018-06-25T14:45:45.866Z,44416.00
2018-06-25T14:46:45.820Z,44416.00
2018-06-25T14:47:45.815Z,44832.00
2018-06-25T14:48:45.840Z,43968.00
2018-06-25T14:49:45.870Z,40448.00
2018-06-25T14:50:46.000Z,37760.00
2018-06-25T14:51:45.930Z,35968.00
2018-06-25T14:52:46.349Z,35232.00
2018-06-25T14:53:45.970Z,35456.00
2018-06-25T14:54:46.025Z,35392.00
2018-06-25T14:55:46.154Z,35456.00
2018-06-25T14:56:46.074Z,35520.00
2018-06-25T14:57:46.099Z,35168.00
2018-06-25T14:58:46.095Z,35104.00
2018-06-25T14:59:46.741Z,35328.00
2018-06-25T15:00:46.684Z,35744.00
2018-06-25T15:01:46.191Z,36224.00
2018-06-25T15:02:46.306Z,36544.00
2018-06-25T15:03:46.230Z,36096.00
2018-06-25T15:04:46.253Z,35936.00
2018-06-25T15:05:46.314Z,36480.00
2018-06-25T15:06:46.463Z,36928.00
2018-06-25T15:07:46.355Z,36992.00
2018-06-25T15:08:46.569Z,37376.00
2018-06-25T15:09:46.412Z,37920.00
2018-06-25T15:10:46.409Z,38944.00
2018-06-25T15:11:46.465Z,39200.00
2018-06-25T15:12:46.562Z,40224.00
2018-06-25T15:13:46.510Z,40544.00
2018-06-25T15:14:46.518Z,39840.00
2018-06-25T15:15:46.567Z,39328.00
2018-06-25T15:16:46.573Z,38688.00
2018-06-25T15:17:46.736Z,39136.00
2018-06-25T15:18:46.611Z,40832.00
2018-06-25T15:19:46.664Z,42752.00
2018-06-25T15:20:46.665Z,43264.00
2018-06-25T15:21:46.687Z,41376.00
2018-06-25T15:22:46.863Z,40384.00
2018-06-25T15:23:46.744Z,40192.00
2018-06-25T15:24:46.790Z,40160.00
2018-06-25T15:25:46.810Z,39680.00
2018-06-25T15:26:46.840Z,38528.00
2018-06-25T15:27:46.990Z,37952.00
2018-06-25T15:28:46.869Z,37344.00
2018-06-25T15:29:46.913Z,37056.00
2018-06-25T15:30:46.921Z,36960.00
2018-06-25T15:31:46.973Z,37632.00
2018-06-25T15:32:47.141Z,37888.00
2018-06-25T15:33:47.021Z,37248.00
2018-06-25T15:34:47.047Z,36800.00
2018-06-25T15:35:47.038Z,37856.00
2018-06-25T15:36:47.081Z,37856.00
2018-06-25T15:37:47.193Z,33280.00
2018-06-25T15:45:53.610Z,35264.00
2018-06-25T15:46:53.552Z,35360.00
2018-06-25T15:47:53.575Z,35488.00
2018-06-25T15:48:53.590Z,35488.00
2018-06-25T15:49:53.638Z,35232.00
2018-06-25T15:50:53.796Z,34976.00
2018-06-25T15:51:53.668Z,34624.00
2018-06-25T15:52:53.690Z,34368.00
2018-06-25T15:53:53.790Z,34080.00
2018-06-25T15:54:53.765Z,33824.00
2018-06-25T15:55:53.892Z,33728.00
2018-06-25T15:56:53.818Z,33536.00
2018-06-25T15:57:53.821Z,33408.00
2018-06-25T15:58:53.845Z,33728.00
2018-06-25T16:01:20.030Z,33728.00
2018-06-25T16:02:19.699Z,33504.00
2018-06-25T16:03:19.721Z,33248.00
2018-06-25T16:04:19.757Z,33440.00
2018-06-25T16:05:19.773Z,33472.00
2018-06-25T16:06:19.902Z,33632.00
2018-06-25T16:07:19.838Z,33984.00
2018-06-25T16:08:19.881Z,34752.00
2018-06-25T16:09:19.890Z,35264.00
2018-06-25T16:10:19.918Z,35264.00
2018-06-25T16:11:20.075Z,34912.00
2018-06-25T16:12:19.985Z,34624.00
2018-06-25T16:13:19.976Z,33952.00
2018-06-25T16:14:20.023Z,33792.00
2018-06-25T16:15:20.045Z,33504.00
2018-06-25T16:16:20.152Z,33536.00
2018-06-25T16:17:20.079Z,33568.00
2018-06-25T16:18:20.124Z,34336.00
2018-06-25T16:19:20.155Z,35424.00
2018-06-25T16:20:20.162Z,35744.00
2018-06-25T16:21:20.287Z,36064.00
2018-06-25T16:22:20.225Z,35520.00
2018-06-25T16:23:20.251Z,34560.00
2018-06-25T16:24:20.263Z,33472.00
2018-06-25T16:25:20.314Z,30272.00
2018-06-25T16:26:20.419Z,20256.00
2018-06-25T16:27:20.345Z,10008.00
2018-06-25T16:28:20.389Z,6772.00
2018-06-25T16:29:20.388Z,6252.00
2018-06-25T16:30:20.426Z,6020.00
2018-06-25T16:31:20.568Z,5848.00
2018-06-25T16:32:20.489Z,5612.00
2018-06-25T16:33:20.491Z,5656.00
2018-06-25T16:34:20.514Z,5596.00
2018-06-25T16:35:20.540Z,5572.00
2018-06-25T16:36:20.673Z,5532.00
2018-06-25T16:37:20.591Z,5508.00
2018-06-25T16:38:20.614Z,5460.00
2018-06-25T16:39:20.635Z,5428.00
2018-06-25T16:40:20.657Z,5372.00
2018-06-25T16:41:20.844Z,5320.00
2018-06-25T16:42:20.712Z,5264.00
2018-06-25T16:43:20.730Z,5232.00
2018-06-25T16:44:20.756Z,5216.00
2018-06-25T16:45:20.778Z,5176.00
2018-06-25T16:46:20.900Z,5176.00
2018-06-25T16:47:20.888Z,5180.00
2018-06-25T16:48:20.843Z,5156.00
2018-06-25T16:49:20.873Z,5136.00
2018-06-25T16:50:20.919Z,5124.00
2018-06-25T16:51:21.054Z,5116.00
2018-06-25T16:52:20.931Z,5104.00
2018-06-25T16:53:20.949Z,5096.00
2018-06-25T16:54:20.998Z,5104.00
2018-06-25T16:55:20.992Z,5104.00
2018-06-25T16:56:21.117Z,5100.00
2018-06-25T16:57:21.037Z,5088.00
2018-06-25T16:58:21.080Z,5080.00
2018-06-25T16:59:21.107Z,5072.00
2018-06-25T17:00:21.099Z,5060.00
2018-06-25T17:01:21.224Z,5048.00
2018-06-25T17:02:21.152Z,5032.00
2018-06-25T17:03:21.186Z,5004.00
2018-06-25T17:04:21.215Z,4952.00
2018-06-25T17:05:21.203Z,4936.00
2018-06-25T17:06:21.408Z,4908.00
2018-06-25T17:07:21.249Z,4956.00
2018-06-25T17:08:21.292Z,4908.00
2018-06-25T17:09:21.284Z,4892.00
2018-06-25T17:10:21.335Z,4880.00
2018-06-25T17:11:21.463Z,4868.00
2018-06-25T17:12:21.349Z,4844.00
2018-06-25T17:13:21.373Z,4792.00
2018-06-25T17:14:21.391Z,4780.00
2018-06-25T17:15:21.407Z,4784.00
2018-06-25T17:16:21.455Z,4744.00
2018-06-25T17:17:21.550Z,4272.00
2018-06-25T17:18:21.480Z,4672.00
2018-06-25T17:19:21.490Z,4724.00
2018-06-25T17:20:21.506Z,4748.00
2018-06-25T17:21:21.545Z,4800.00
2018-06-25T17:22:21.726Z,4888.00
2018-06-25T17:23:21.603Z,5052.00
2018-06-25T17:24:21.589Z,5088.00
2018-06-25T17:25:21.649Z,5088.00
2018-06-25T17:26:21.631Z,5012.00
2018-06-25T17:27:21.808Z,4936.00
2018-06-25T17:28:21.671Z,4728.00
2018-06-25T17:29:21.720Z,4660.00
2018-06-25T17:30:21.713Z,4660.00
2018-06-25T17:31:21.730Z,4676.00
2018-06-25T17:32:21.871Z,4688.00
2018-06-25T17:33:21.782Z,4672.00
2018-06-25T17:34:21.799Z,4664.00
2018-06-25T17:35:21.824Z,4652.00
2018-06-25T17:36:21.843Z,4636.00
2018-06-25T17:37:22.208Z,4600.00
2018-06-25T17:38:21.877Z,4588.00
2018-06-25T17:39:21.897Z,4580.00
2018-06-25T17:40:21.917Z,4592.00
2018-06-25T17:41:21.936Z,4652.00
2018-06-25T17:42:22.107Z,4672.00
2018-06-25T17:43:22.000Z,4660.00
2018-06-25T17:44:21.996Z,4648.00
2018-06-25T17:45:22.016Z,4624.00
2018-06-25T17:46:22.033Z,4612.00
2018-06-25T17:47:22.212Z,4636.00
2018-06-25T17:48:22.114Z,4708.00
2018-06-25T17:49:22.121Z,4692.00
2018-06-25T17:50:22.123Z,4520.00
2018-06-25T17:51:22.165Z,4524.00
2018-06-25T17:52:22.255Z,4616.00
2018-06-25T17:53:22.178Z,4652.00
2018-06-25T17:54:22.220Z,4592.00
2018-06-25T17:55:22.225Z,4524.00
2018-06-25T17:56:22.233Z,4440.00
2018-06-25T17:57:22.557Z,4380.00
2018-06-25T17:58:22.302Z,4352.00
2018-06-25T17:59:22.295Z,4320.00
2018-06-25T18:00:22.318Z,4292.00
2018-06-25T18:01:22.347Z,4260.00
2018-06-25T18:02:22.507Z,4268.00
2018-06-25T18:03:22.377Z,4264.00
2018-06-25T18:04:22.425Z,4212.00
2018-06-25T18:05:22.448Z,4208.00
2018-06-25T18:06:22.435Z,4224.00
2018-06-25T18:07:22.570Z,4228.00
2018-06-25T18:08:22.472Z,4212.00
2018-06-25T18:09:22.502Z,4212.00
2018-06-25T18:10:22.533Z,4220.00
2018-06-25T18:11:22.537Z,4260.00
2018-06-25T18:12:22.683Z,4268.00
2018-06-25T18:13:22.601Z,4284.00
2018-06-25T18:14:22.610Z,4300.00
2018-06-25T18:15:22.618Z,4312.00
2018-06-25T18:16:22.665Z,4360.00
2018-06-25T18:17:22.776Z,4384.00
2018-06-25T18:18:22.677Z,4392.00
2018-06-25T18:19:22.693Z,4408.00
2018-06-25T18:20:22.747Z,4432.00
2018-06-25T18:21:22.747Z,4444.00
2018-06-25T18:22:22.855Z,4456.00
2018-06-25T18:23:23.003Z,4472.00
2018-06-25T18:24:22.797Z,4524.00
2018-06-25T18:25:22.838Z,4504.00
2018-06-25T18:26:22.858Z,4528.00
2018-06-25T18:29:23.050Z,4664.00
2018-06-25T18:30:22.937Z,4696.00
2018-06-25T18:31:22.942Z,4756.00
2018-06-25T18:32:22.954Z,4812.00
2018-06-25T18:33:22.998Z,4856.00
2018-06-25T18:34:23.169Z,4908.00
2018-06-25T18:35:23.217Z,4936.00
2018-06-25T18:36:23.047Z,4988.00
2018-06-25T18:37:23.055Z,5060.00
2018-06-25T18:38:23.065Z,5140.00
2018-06-25T18:40:23.236Z,5128.00
2018-06-25T18:41:23.125Z,5088.00
2018-06-25T18:42:23.151Z,5024.00
2018-06-25T18:43:23.195Z,4984.00
2018-06-25T18:44:23.193Z,4924.00
2018-06-25T18:45:23.369Z,4852.00
2018-06-25T18:46:23.237Z,4800.00
2018-06-25T18:47:23.247Z,4752.00
2018-06-25T18:48:23.294Z,4712.00
2018-06-25T18:49:23.304Z,4716.00
2018-06-25T18:50:23.438Z,4708.00
2018-06-25T18:51:23.354Z,4688.00
2018-06-25T18:52:23.347Z,4624.00
2018-06-25T18:53:23.371Z,4520.00
2018-06-25T18:54:23.400Z,4388.00
2018-06-25T18:55:23.514Z,4256.00
2018-06-25T18:56:23.427Z,4136.00
2018-06-25T18:57:23.473Z,4056.00
2018-06-25T18:58:23.495Z,4032.00
2018-06-25T18:59:23.502Z,4032.00
2018-06-25T19:00:23.609Z,4048.00
2018-06-25T19:01:23.530Z,4036.00
2018-06-25T19:02:23.549Z,3952.00
2018-06-25T19:03:23.598Z,3752.00
2018-06-25T19:04:23.587Z,3696.00
2018-06-25T19:05:23.718Z,3656.00
2018-06-25T19:06:23.645Z,3620.00
2018-06-25T19:07:23.644Z,3580.00
2018-06-25T19:08:23.672Z,3552.00
2018-06-25T19:09:23.687Z,3384.00
2018-06-25T19:10:23.822Z,3340.00
2018-06-25T19:11:23.726Z,3424.00
2018-06-25T19:12:23.783Z,3372.00
2018-06-25T19:13:23.764Z,3344.00
2018-06-25T19:14:23.814Z,3316.00
2018-06-25T19:15:23.984Z,3252.00
2018-06-25T19:16:23.820Z,3120.00
2018-06-25T19:17:23.869Z,3084.00
2018-06-25T19:18:23.863Z,3076.00
2018-06-25T19:19:23.911Z,3072.00
2018-06-25T19:20:24.063Z,3032.00
2018-06-25T19:21:23.921Z,3028.00
2018-06-25T19:22:23.966Z,3080.00
2018-06-25T19:23:23.963Z,3032.00
2018-06-25T19:24:23.995Z,3128.00
2018-06-25T19:25:24.127Z,3036.00
2018-06-25T19:26:24.021Z,2984.00
2018-06-25T19:27:24.064Z,2928.00
2018-06-25T19:28:24.084Z,2856.00
2018-06-25T19:29:24.089Z,2760.00
2018-06-25T19:30:24.249Z,2752.00
2018-06-25T19:31:24.144Z,2620.00
2018-06-25T19:32:24.131Z,2544.00
2018-06-25T19:33:24.220Z,2436.00
2018-06-25T19:34:24.173Z,2348.00
2018-06-25T19:35:24.325Z,2252.00
2018-06-25T19:36:24.213Z,2192.00
2018-06-25T19:37:24.232Z,2112.00
2018-06-25T19:38:24.284Z,2048.00
2018-06-25T19:39:24.276Z,2016.00
2018-06-25T19:40:24.449Z,1984.00
2018-06-25T19:41:24.336Z,1928.00
2018-06-25T19:42:24.355Z,1888.00
2018-06-25T19:43:24.356Z,1840.00
2018-06-25T19:44:24.400Z,1796.00
2018-06-25T19:45:24.402Z,1752.00
2018-06-25T19:46:24.562Z,1704.00
2018-06-25T19:47:24.458Z,1656.00
2018-06-25T19:48:24.439Z,1612.00
2018-06-25T19:49:24.494Z,1536.00
2018-06-25T19:50:24.499Z,1500.00
2018-06-25T19:51:24.629Z,1504.00
2018-06-25T19:52:24.533Z,1496.00
2018-06-25T19:53:24.567Z,1476.00
2018-06-25T19:54:24.561Z,1416.00
2018-06-25T19:55:24.607Z,1368.00
2018-06-25T19:56:24.751Z,1308.00
2018-06-25T19:57:24.618Z,1256.00
2018-06-25T19:58:24.638Z,1216.00
2018-06-25T19:59:24.657Z,1168.00
2018-06-25T20:00:24.700Z,1120.00
2018-06-25T20:01:24.819Z,1080.00
2018-06-25T20:02:24.715Z,1032.00
2018-06-25T20:03:24.735Z,984.00
2018-06-25T20:04:24.755Z,936.00
2018-06-25T20:05:24.770Z,888.00
2018-06-25T20:06:24.889Z,848.00
2018-06-25T20:07:24.809Z,804.00
2018-06-25T20:08:24.909Z,760.00
2018-06-25T20:09:24.843Z,720.00
2018-06-25T20:10:24.874Z,680.00
2018-06-25T20:11:25.036Z,640.00
2018-06-25T20:12:24.961Z,600.00
2018-06-25T20:13:24.945Z,560.00
2018-06-25T20:14:24.939Z,528.00
2018-06-25T20:15:25.126Z,492.00
2018-06-25T20:16:25.103Z,460.00
2018-06-25T20:17:25.018Z,428.00
2018-06-25T20:18:25.037Z,396.00
2018-06-25T20:19:25.060Z,364.00
2018-06-25T20:20:25.058Z,336.00
2018-06-25T20:21:25.175Z,308.00
2018-06-25T20:22:25.224Z,280.00
2018-06-25T20:23:25.131Z,256.00
2018-06-25T20:24:25.149Z,232.00
2018-06-25T20:25:25.140Z,212.00
2018-06-25T20:26:25.260Z,196.00
2018-06-25T20:27:25.212Z,176.00
2018-06-25T20:28:25.201Z,156.00
2018-06-25T20:29:25.248Z,144.00
2018-06-25T20:30:25.261Z,124.00
2018-06-25T20:31:25.402Z,112.00
2018-06-25T20:32:25.501Z,96.00
2018-06-25T20:33:25.314Z,84.00
2018-06-25T20:34:25.508Z,76.00
2018-06-25T20:35:25.325Z,64.00
2018-06-25T20:36:25.343Z,56.00
2018-06-25T20:37:25.538Z,48.00
2018-06-25T20:59:10.089Z,0.00
2018-06-25T21:07:15.604Z,0.00
2018-06-25T21:25:27.197Z,0.00
2018-06-25T21:35:37.910Z,0.00
2018-06-25T21:47:18.833Z,0.00
2018-06-25T21:57:48.351Z,0.00
2018-06-25T22:53:38.150Z,0.00
